createdAt,value
2022-09-05T00:00:12.763Z,2.97
2022-09-05T00:01:27.448Z,3.15
2022-09-05T00:02:49.025Z,2.92
2022-09-05T00:03:58.819Z,2.63
2022-09-05T00:05:54.074Z,2.88
2022-09-05T00:07:44.681Z,3.22
2022-09-05T00:08:47.821Z,2.75
2022-09-05T00:10:05.789Z,2.67
2022-09-05T00:11:42.982Z,2.97
2022-09-05T00:12:41.994Z,3.08
2022-09-05T00:13:48.750Z,2.78
2022-09-05T00:15:15.981Z,3.08
2022-09-05T00:16:39.881Z,2.78
2022-09-05T00:20:00.138Z,2.97
2022-09-05T00:23:38.695Z,3.85
2022-09-05T00:24:19.136Z,2.90
2022-09-05T00:24:27.975Z,2.67
2022-09-05T00:24:29.590Z,2.55
2022-09-05T00:25:57.781Z,2.22
2022-09-05T00:27:06.369Z,2.83
2022-09-05T00:28:26.355Z,2.75
2022-09-05T00:31:08.223Z,2.70
2022-09-05T00:31:53.521Z,3.00
2022-09-05T00:33:16.672Z,2.80
2022-09-05T00:35:10.896Z,2.78
2022-09-05T00:36:27.876Z,2.53
2022-09-05T00:37:34.792Z,2.85
2022-09-05T00:38:41.600Z,2.80
2022-09-05T00:39:47.846Z,2.80
2022-09-05T00:41:13.567Z,3.25
2022-09-05T00:42:19.342Z,3.20
2022-09-05T00:43:25.319Z,2.47
2022-09-05T00:44:30.878Z,2.70
2022-09-05T00:45:39.110Z,2.13
2022-09-05T00:46:51.135Z,2.38
2022-09-05T00:48:00.595Z,2.63
2022-09-05T00:49:15.880Z,2.50
2022-09-05T00:50:25.546Z,2.35
2022-09-05T00:51:36.922Z,2.78
2022-09-05T00:53:05.015Z,2.60
2022-09-05T00:54:44.576Z,2.40
2022-09-05T00:55:58.865Z,2.70
2022-09-05T00:57:17.990Z,3.40
2022-09-05T00:58:56.625Z,3.13
2022-09-05T01:00:17.274Z,2.70
2022-09-05T01:01:30.656Z,2.83
2022-09-05T01:03:09.714Z,3.30
2022-09-05T01:04:26.032Z,3.08
2022-09-05T01:05:41.177Z,3.35
2022-09-05T01:06:59.474Z,3.13
2022-09-05T01:08:18.897Z,2.58
2022-09-05T01:09:34.767Z,3.10
2022-09-05T01:10:46.691Z,2.90
2022-09-05T01:12:02.009Z,3.80
2022-09-05T01:13:17.613Z,3.30
2022-09-05T01:14:36.931Z,3.05
2022-09-05T01:15:49.525Z,3.13
2022-09-05T01:17:09.653Z,3.85
2022-09-05T01:18:34.797Z,3.17
2022-09-05T01:19:51.879Z,3.60
2022-09-05T01:21:10.886Z,3.05
2022-09-05T01:22:40.003Z,2.20
2022-09-05T01:24:06.414Z,2.58
2022-09-05T01:25:35.368Z,2.67
2022-09-05T01:27:12.154Z,2.50
2022-09-05T01:29:16.895Z,3.50
2022-09-05T01:29:49.054Z,2.80
2022-09-05T01:31:00.320Z,2.30
2022-09-05T01:32:16.371Z,2.30
2022-09-05T01:33:32.540Z,3.08
2022-09-05T01:34:47.211Z,2.60
2022-09-05T01:36:28.060Z,2.40
2022-09-05T01:37:40.242Z,2.55
2022-09-05T01:39:49.202Z,3.05
2022-09-05T01:40:24.094Z,2.28
2022-09-05T01:41:33.309Z,2.65
2022-09-05T01:42:41.791Z,2.95
2022-09-05T01:44:13.626Z,2.58
2022-09-05T01:45:29.046Z,2.90
2022-09-05T01:46:52.596Z,2.60
2022-09-05T01:48:03.525Z,2.30
2022-09-05T01:49:16.122Z,2.28
2022-09-05T01:50:36.146Z,2.67
2022-09-05T01:51:46.031Z,3.05
2022-09-05T01:53:26.251Z,2.92
2022-09-05T01:54:37.771Z,3.00
2022-09-05T01:56:05.032Z,2.30
2022-09-05T01:57:22.287Z,2.90
2022-09-05T01:58:33.938Z,2.85
2022-09-05T01:59:46.139Z,3.10
2022-09-05T02:00:55.819Z,2.67
2022-09-05T02:02:35.246Z,2.80
2022-09-05T02:03:44.688Z,2.35
2022-09-05T02:05:15.167Z,2.95
2022-09-05T02:06:35.597Z,2.80
2022-09-05T02:08:00.823Z,2.50
2022-09-05T02:09:17.845Z,2.47
2022-09-05T02:10:49.933Z,2.22
2022-09-05T02:11:56.978Z,2.50
2022-09-05T02:13:11.965Z,2.90
2022-09-05T02:14:36.910Z,2.92
2022-09-05T02:15:59.164Z,2.33
2022-09-05T02:17:33.500Z,2.50
2022-09-05T02:18:53.342Z,2.42
2022-09-05T02:20:02.126Z,2.95
2022-09-05T02:21:12.617Z,2.38
2022-09-05T02:22:19.683Z,2.63
2022-09-05T02:23:40.555Z,2.92
2022-09-05T02:24:47.222Z,2.30
2022-09-05T02:26:01.563Z,2.97
2022-09-05T02:27:35.857Z,1.95
2022-09-05T02:28:51.156Z,2.33
2022-09-05T02:30:05.982Z,2.85
2022-09-05T02:31:21.046Z,2.30
2022-09-05T02:32:27.640Z,2.83
2022-09-05T02:33:38.874Z,2.80
2022-09-05T02:34:50.838Z,2.58
2022-09-05T02:36:02.044Z,3.28
2022-09-05T02:37:09.482Z,2.65
2022-09-05T02:40:31.213Z,2.42
2022-09-05T02:45:00.100Z,2.40
2022-09-05T02:45:12.663Z,2.35
2022-09-05T02:45:17.257Z,2.65
2022-09-05T02:45:19.350Z,2.40
2022-09-05T02:45:56.911Z,2.30
2022-09-05T02:47:09.896Z,1.92
2022-09-05T02:48:23.617Z,2.22
2022-09-05T02:50:51.713Z,2.58
2022-09-05T02:57:24.566Z,2.40
2022-09-05T02:57:37.039Z,2.90
2022-09-05T02:57:38.987Z,2.20
2022-09-05T02:57:46.440Z,2.40
2022-09-05T02:57:47.031Z,2.50
2022-09-05T02:59:08.646Z,2.10
2022-09-05T03:00:16.129Z,2.70
2022-09-05T03:01:30.837Z,1.90
2022-09-05T03:02:51.846Z,2.55
2022-09-05T03:04:01.520Z,2.42
2022-09-05T03:05:10.748Z,2.55
2022-09-05T03:06:34.914Z,2.40
2022-09-05T03:07:56.014Z,2.33
2022-09-05T03:09:21.213Z,2.30
2022-09-05T03:10:54.498Z,2.40
2022-09-05T03:12:29.388Z,2.20
2022-09-05T03:13:59.688Z,2.25
2022-09-05T03:15:23.721Z,2.28
2022-09-05T03:17:04.513Z,2.72
2022-09-05T03:18:28.935Z,2.28
2022-09-05T03:20:12.052Z,2.53
2022-09-05T03:21:52.286Z,2.17
2022-09-05T03:23:33.211Z,2.17
2022-09-05T03:25:12.314Z,2.40
2022-09-05T03:26:47.601Z,2.30
2022-09-05T03:28:26.714Z,2.42
2022-09-05T03:29:44.957Z,2.60
2022-09-05T03:31:05.842Z,2.25
2022-09-05T03:32:42.941Z,2.58
2022-09-05T03:34:19.625Z,2.40
2022-09-05T03:35:56.062Z,2.40
2022-09-05T03:37:27.219Z,2.13
2022-09-05T03:39:16.518Z,2.25
2022-09-05T03:40:47.850Z,2.30
2022-09-05T03:42:14.677Z,2.17
2022-09-05T03:44:06.242Z,2.45
2022-09-05T03:45:36.929Z,1.90
2022-09-05T03:47:13.274Z,2.10
2022-09-05T03:48:39.341Z,2.35
2022-09-05T03:56:55.597Z,2.58
2022-09-05T03:57:08.179Z,2.88
2022-09-05T03:57:15.326Z,2.10
2022-09-05T03:57:18.178Z,2.40
2022-09-05T03:57:28.079Z,2.50
2022-09-05T03:58:56.372Z,2.38
2022-09-05T04:00:08.240Z,3.08
2022-09-05T04:05:41.939Z,2.20
2022-09-05T04:08:07.123Z,2.15
2022-09-05T04:08:14.988Z,1.92
2022-09-05T04:08:15.118Z,2.40
2022-09-05T04:08:20.946Z,1.90
2022-09-05T04:08:58.059Z,1.75
2022-09-05T04:10:03.835Z,2.30
2022-09-05T04:11:12.573Z,2.20
2022-09-05T04:12:18.406Z,2.53
2022-09-05T04:13:26.892Z,2.20
2022-09-05T04:14:40.354Z,1.90
2022-09-05T04:15:47.393Z,2.00
2022-09-05T04:16:59.808Z,1.90
2022-09-05T04:18:12.762Z,2.03
2022-09-05T04:19:21.245Z,2.22
2022-09-05T04:20:39.740Z,2.50
2022-09-05T04:21:50.645Z,2.10
2022-09-05T04:23:08.310Z,2.47
2022-09-05T04:24:13.831Z,2.10
2022-09-05T04:25:22.773Z,2.50
2022-09-05T04:26:52.765Z,2.60
2022-09-05T04:28:06.236Z,2.50
2022-09-05T04:29:18.950Z,2.15
2022-09-05T04:30:40.461Z,2.10
2022-09-05T04:31:50.057Z,2.20
2022-09-05T04:33:23.406Z,2.55
2022-09-05T04:34:51.162Z,2.72
2022-09-05T04:36:00.111Z,1.75
2022-09-05T04:37:09.385Z,2.42
2022-09-05T04:38:17.149Z,2.35
2022-09-05T04:39:27.114Z,2.33
2022-09-05T04:40:42.861Z,2.75
2022-09-05T04:41:49.857Z,2.75
2022-09-05T04:42:52.438Z,2.40
2022-09-05T04:44:01.489Z,2.90
2022-09-05T04:45:11.741Z,2.17
2022-09-05T04:46:24.698Z,2.35
2022-09-05T04:47:30.560Z,2.50
2022-09-05T04:48:37.672Z,2.22
2022-09-05T04:49:43.330Z,2.50
2022-09-05T04:51:06.092Z,2.70
2022-09-05T04:52:36.419Z,2.00
2022-09-05T04:54:23.322Z,2.60
2022-09-05T04:55:32.562Z,1.80
2022-09-05T04:56:39.510Z,2.00
2022-09-05T04:57:49.954Z,2.28
2022-09-05T05:00:38.202Z,3.00
2022-09-05T05:06:01.928Z,2.25
2022-09-05T05:06:02.789Z,2.50
2022-09-05T05:06:17.746Z,2.28
2022-09-05T05:06:18.350Z,2.15
2022-09-05T05:06:37.970Z,2.15
2022-09-05T05:07:45.793Z,2.00
2022-09-05T05:08:56.530Z,2.58
2022-09-05T05:12:04.176Z,2.20
2022-09-05T05:17:55.805Z,2.15
2022-09-05T05:17:59.345Z,2.40
2022-09-05T05:18:02.254Z,1.90
2022-09-05T05:18:06.379Z,2.20
2022-09-05T05:18:15.635Z,2.05
2022-09-05T05:19:18.799Z,2.45
2022-09-05T05:20:40.154Z,2.47
2022-09-05T05:21:50.086Z,2.30
2022-09-05T05:23:07.617Z,2.38
2022-09-05T05:24:15.318Z,1.83
2022-09-05T05:25:17.727Z,2.30
2022-09-05T05:26:25.365Z,2.30
2022-09-05T05:27:31.733Z,2.35
2022-09-05T05:28:50.644Z,2.15
2022-09-05T05:29:58.078Z,2.42
2022-09-05T05:31:13.287Z,2.28
2022-09-05T05:32:24.888Z,2.90
2022-09-05T05:33:49.926Z,2.47
2022-09-05T05:34:57.378Z,2.40
2022-09-05T05:36:02.272Z,2.53
2022-09-05T05:37:15.605Z,2.50
2022-09-05T05:38:30.850Z,2.33
2022-09-05T05:39:38.571Z,2.53
2022-09-05T05:40:50.761Z,2.30
2022-09-05T05:41:55.603Z,2.45
2022-09-05T05:43:15.763Z,2.58
2022-09-05T05:44:20.948Z,2.40
2022-09-05T05:45:27.632Z,2.35
2022-09-05T05:46:34.774Z,2.63
2022-09-05T05:47:42.685Z,2.90
2022-09-05T05:48:56.782Z,2.83
2022-09-05T05:50:11.490Z,2.63
2022-09-05T05:51:36.508Z,2.22
2022-09-05T05:53:28.874Z,2.20
2022-09-05T05:54:51.210Z,2.42
2022-09-05T05:56:27.546Z,3.08
2022-09-05T05:57:58.290Z,2.72
2022-09-05T05:59:15.372Z,3.13
2022-09-05T06:00:27.476Z,2.47
2022-09-05T06:02:01.631Z,2.50
2022-09-05T06:03:39.294Z,2.50
2022-09-05T06:05:31.401Z,2.70
2022-09-05T06:06:46.541Z,3.95
2022-09-05T06:09:18.428Z,2.67
2022-09-05T06:14:54.743Z,2.60
2022-09-05T06:14:55.119Z,2.63
2022-09-05T06:15:00.162Z,2.90
2022-09-05T06:16:09.057Z,2.20
2022-09-05T06:17:39.959Z,2.70
2022-09-05T06:19:13.911Z,2.50
2022-09-05T06:22:09.628Z,2.78
2022-09-05T06:22:26.933Z,2.95
2022-09-05T06:24:10.293Z,2.80
2022-09-05T06:25:41.754Z,2.97
2022-09-05T06:27:26.461Z,3.50
2022-09-05T06:28:38.813Z,2.90
2022-09-05T06:29:55.621Z,3.35
2022-09-05T06:31:29.061Z,2.85
2022-09-05T06:32:58.321Z,2.88
2022-09-05T06:34:32.694Z,2.80
2022-09-05T06:35:52.789Z,3.55
2022-09-05T06:37:14.050Z,3.33
2022-09-05T06:38:37.518Z,3.45
2022-09-05T06:39:56.409Z,3.00
2022-09-05T06:41:20.733Z,3.08
2022-09-05T06:42:42.388Z,3.40
2022-09-05T06:44:17.317Z,3.05
2022-09-05T06:45:58.870Z,3.45
2022-09-05T06:47:24.256Z,4.20
2022-09-05T06:48:45.586Z,4.40
2022-09-05T06:50:26.857Z,3.58
2022-09-05T06:52:28.597Z,4.20
2022-09-05T06:53:56.644Z,4.30
2022-09-05T06:55:38.238Z,5.22
2022-09-05T06:57:10.178Z,4.30
2022-09-05T06:58:37.711Z,5.13
2022-09-05T07:00:22.680Z,4.45
2022-09-05T07:02:00.789Z,4.45
2022-09-05T07:03:19.348Z,4.65
2022-09-05T07:05:24.553Z,4.35
2022-09-05T07:06:00.184Z,4.18
2022-09-05T07:07:13.584Z,4.25
2022-09-05T07:08:36.297Z,4.43
2022-09-05T07:09:52.551Z,4.82
2022-09-05T07:11:02.888Z,4.50
2022-09-05T07:12:30.213Z,4.85
2022-09-05T07:13:44.623Z,5.00
2022-09-05T07:15:08.689Z,4.30
2022-09-05T07:16:35.660Z,4.80
2022-09-05T07:18:09.549Z,4.43
2022-09-05T07:19:26.730Z,4.93
2022-09-05T07:20:47.859Z,5.43
2022-09-05T07:22:29.472Z,5.70
2022-09-05T07:24:05.944Z,4.97
2022-09-05T07:25:18.421Z,5.15
2022-09-05T07:26:48.004Z,4.63
2022-09-05T07:28:26.441Z,4.97
2022-09-05T07:29:22.013Z,4.57
2022-09-05T07:30:24.220Z,5.18
2022-09-05T07:31:37.943Z,5.25
2022-09-05T07:32:44.630Z,4.75
2022-09-05T07:33:48.684Z,5.25
2022-09-05T07:34:52.892Z,5.35
2022-09-05T07:36:03.756Z,5.55
2022-09-05T07:37:15.474Z,6.45
2022-09-05T07:38:22.732Z,5.07
2022-09-05T07:39:40.167Z,5.28
2022-09-05T07:40:51.748Z,5.03
2022-09-05T07:41:57.314Z,5.80
2022-09-05T07:43:09.797Z,5.45
2022-09-05T07:44:22.138Z,6.40
2022-09-05T07:45:27.089Z,5.65
2022-09-05T07:46:34.815Z,6.30
2022-09-05T07:47:43.710Z,6.25
2022-09-05T07:48:50.377Z,7.10
2022-09-05T07:52:05.377Z,6.40
2022-09-05T07:56:52.809Z,7.40
2022-09-05T07:56:55.104Z,6.38
2022-09-05T07:57:08.251Z,5.40
2022-09-05T07:57:15.501Z,6.68
2022-09-05T07:58:41.686Z,6.13
2022-09-05T07:59:47.688Z,5.45
2022-09-05T08:00:58.181Z,5.05
2022-09-05T08:02:02.730Z,6.32
2022-09-05T08:03:10.841Z,6.88
2022-09-05T08:04:26.821Z,5.20
2022-09-05T08:05:39.487Z,5.25
2022-09-05T08:07:46.011Z,5.65
2022-09-05T08:08:10.905Z,6.65
2022-09-05T08:10:02.287Z,5.30
2022-09-05T08:11:24.096Z,5.65
2022-09-05T08:12:15.284Z,5.35
2022-09-05T08:13:34.229Z,5.20
2022-09-05T08:14:58.084Z,4.53
2022-09-05T08:16:13.158Z,5.05
2022-09-05T08:17:20.775Z,4.93
2022-09-05T08:18:38.512Z,4.75
2022-09-05T08:20:05.506Z,4.57
2022-09-05T08:21:27.397Z,5.07
2022-09-05T08:22:34.686Z,5.20
2022-09-05T08:23:50.027Z,5.10
2022-09-05T08:25:02.108Z,4.80
2022-09-05T08:26:09.657Z,4.25
2022-09-05T08:27:17.215Z,4.95
2022-09-05T08:28:37.540Z,4.63
2022-09-05T08:29:44.757Z,4.43
2022-09-05T08:30:56.026Z,4.63
2022-09-05T08:32:08.424Z,5.30
2022-09-05T08:33:14.717Z,4.32
2022-09-05T08:34:24.841Z,4.60
2022-09-05T08:35:41.735Z,4.35
2022-09-05T08:36:47.181Z,3.63
2022-09-05T08:37:51.890Z,4.68
2022-09-05T08:38:55.289Z,4.15
2022-09-05T08:40:11.346Z,4.72
2022-09-05T08:41:25.931Z,3.97
2022-09-05T08:46:37.151Z,4.63
2022-09-05T08:46:37.858Z,4.00
2022-09-05T08:46:40.020Z,3.80
2022-09-05T08:47:28.936Z,3.72
2022-09-05T08:49:36.470Z,3.85
2022-09-05T08:51:16.603Z,3.80
2022-09-05T08:52:28.741Z,4.65
2022-09-05T08:53:49.143Z,4.07
2022-09-05T08:55:07.111Z,3.35
2022-09-05T08:56:20.760Z,2.95
2022-09-05T08:57:54.114Z,3.10
2022-09-05T08:59:31.991Z,3.70
2022-09-05T09:00:27.659Z,4.20
2022-09-05T09:02:14.470Z,3.95
2022-09-05T09:03:16.794Z,3.70
2022-09-05T09:04:37.164Z,3.72
2022-09-05T09:06:22.147Z,4.00
2022-09-05T09:07:47.604Z,3.45
2022-09-05T09:09:15.289Z,3.20
2022-09-05T09:10:44.493Z,3.63
2022-09-05T09:11:54.477Z,3.78
2022-09-05T09:13:18.164Z,3.38
2022-09-05T09:14:32.340Z,3.80
2022-09-05T09:15:39.885Z,2.90
2022-09-05T09:16:55.920Z,2.80
2022-09-05T09:18:00.405Z,3.40
2022-09-05T09:19:15.047Z,3.17
2022-09-05T09:20:33.595Z,3.50
2022-09-05T09:21:43.133Z,3.55
2022-09-05T09:22:55.378Z,3.30
2022-09-05T09:24:10.484Z,3.33
2022-09-05T09:25:18.396Z,2.90
2022-09-05T09:26:28.215Z,3.85
2022-09-05T09:28:45.202Z,3.30
2022-09-05T09:29:07.595Z,3.47
2022-09-05T09:30:12.035Z,3.08
2022-09-05T09:31:22.841Z,2.95
2022-09-05T09:32:26.626Z,2.85
2022-09-05T09:33:39.917Z,2.92
2022-09-05T09:34:53.275Z,2.65
2022-09-05T09:36:07.853Z,3.05
2022-09-05T09:37:48.228Z,2.85
2022-09-05T09:39:19.056Z,2.72
2022-09-05T09:41:02.834Z,2.85
2022-09-05T09:42:33.278Z,3.30
2022-09-05T09:44:00.177Z,2.80
2022-09-05T09:45:28.032Z,3.35
2022-09-05T09:46:41.861Z,3.60
2022-09-05T09:48:11.149Z,2.75
2022-09-05T09:49:32.061Z,3.42
2022-09-05T09:51:00.772Z,3.47
2022-09-05T09:52:38.633Z,2.83
2022-09-05T09:54:03.796Z,2.58
2022-09-05T09:55:52.390Z,2.90
2022-09-05T09:57:50.137Z,2.50
2022-09-05T09:59:21.875Z,2.13
2022-09-05T10:00:26.346Z,2.47
2022-09-05T10:01:39.038Z,1.90
2022-09-05T10:08:22.971Z,2.72
2022-09-05T10:10:34.005Z,2.13
2022-09-05T10:10:44.109Z,2.33
2022-09-05T10:10:44.491Z,2.53
2022-09-05T10:11:22.507Z,2.70
2022-09-05T10:12:23.152Z,2.15
2022-09-05T10:13:32.032Z,2.60
2022-09-05T10:14:58.404Z,2.65
2022-09-05T10:16:31.690Z,2.40
2022-09-05T10:18:15.066Z,2.60
2022-09-05T10:21:46.632Z,2.33
2022-09-05T10:23:18.425Z,2.25
2022-09-05T10:24:55.164Z,2.00
2022-09-05T10:26:38.132Z,2.38
2022-09-05T10:27:58.154Z,2.63
2022-09-05T10:29:35.048Z,2.65
2022-09-05T10:32:17.976Z,2.15
2022-09-05T10:34:56.475Z,2.75
2022-09-05T10:35:08.619Z,2.45
2022-09-05T10:35:23.599Z,2.65
2022-09-05T10:36:28.935Z,2.13
2022-09-05T10:37:41.190Z,2.40
2022-09-05T10:38:49.250Z,2.35
2022-09-05T10:39:53.192Z,2.55
2022-09-05T10:41:19.949Z,2.10
2022-09-05T10:42:34.158Z,2.90
2022-09-05T10:43:49.293Z,2.35
2022-09-05T10:44:55.610Z,2.17
2022-09-05T10:46:06.229Z,2.50
2022-09-05T10:47:18.346Z,2.70
2022-09-05T10:48:25.347Z,2.40
2022-09-05T10:49:35.030Z,2.13
2022-09-05T10:50:42.647Z,2.05
2022-09-05T10:51:52.942Z,2.40
2022-09-05T10:53:07.305Z,2.55
2022-09-05T10:54:24.649Z,2.10
2022-09-05T10:55:38.573Z,2.33
2022-09-05T10:56:45.365Z,1.80
2022-09-05T10:58:00.963Z,2.15
2022-09-05T11:02:20.101Z,2.10
2022-09-05T11:02:28.496Z,2.47
2022-09-05T11:02:34.595Z,2.70
2022-09-05T11:03:50.296Z,2.10
2022-09-05T11:05:05.018Z,1.83
2022-09-05T11:06:13.338Z,1.58
2022-09-05T11:07:29.222Z,2.20
2022-09-05T11:08:38.778Z,2.25
2022-09-05T11:10:00.891Z,2.70
2022-09-05T11:11:26.150Z,1.98
2022-09-05T11:12:57.707Z,2.00
2022-09-05T11:14:04.976Z,2.08
2022-09-05T11:15:14.494Z,1.80
2022-09-05T11:16:28.976Z,2.00
2022-09-05T11:17:38.491Z,1.80
2022-09-05T11:19:02.180Z,1.50
2022-09-05T11:20:45.706Z,1.80
2022-09-05T11:22:21.980Z,1.80
2022-09-05T11:23:24.773Z,2.40
2022-09-05T11:24:35.581Z,1.70
2022-09-05T11:25:41.223Z,1.85
2022-09-05T11:26:52.911Z,2.30
2022-09-05T11:28:17.077Z,2.00
2022-09-05T11:29:24.406Z,1.80
2022-09-05T11:30:38.126Z,1.73
2022-09-05T11:32:42.112Z,1.80
2022-09-05T11:39:58.356Z,2.08
2022-09-05T11:40:00.371Z,1.63
2022-09-05T11:40:00.587Z,1.80
2022-09-05T11:40:04.009Z,1.50
2022-09-05T11:40:49.323Z,1.90
2022-09-05T11:42:27.322Z,1.90
2022-09-05T11:44:25.079Z,1.40
2022-09-05T11:48:14.260Z,1.38
2022-09-05T11:49:48.923Z,1.70
2022-09-05T11:51:33.694Z,1.88
2022-09-05T11:53:12.679Z,1.63
2022-09-05T11:54:48.065Z,1.50
2022-09-05T11:56:19.972Z,1.65
2022-09-05T11:57:49.382Z,1.60
2022-09-05T11:59:39.434Z,1.35
2022-09-05T12:01:41.135Z,1.30
2022-09-05T12:02:27.401Z,1.52
2022-09-05T12:04:02.197Z,1.60
2022-09-05T12:05:49.849Z,1.30
2022-09-05T12:07:32.137Z,1.50
2022-09-05T12:08:39.725Z,1.30
2022-09-05T12:10:07.276Z,1.65
2022-09-05T12:11:22.210Z,1.42
2022-09-05T12:12:41.173Z,1.48
2022-09-05T12:13:51.204Z,1.30
2022-09-05T12:15:18.052Z,1.88
2022-09-05T12:16:40.874Z,1.73
2022-09-05T12:17:54.859Z,1.58
2022-09-05T12:20:43.275Z,1.42
2022-09-05T12:22:18.454Z,1.40
2022-09-05T12:24:07.963Z,1.30
2022-09-05T12:27:41.799Z,1.35
2022-09-05T12:27:44.635Z,1.30
2022-09-05T12:29:27.476Z,1.40
2022-09-05T12:30:00.741Z,1.30
2022-09-05T12:33:22.942Z,1.17
2022-09-05T12:35:55.682Z,1.10
2022-09-05T12:36:09.705Z,1.30
2022-09-05T12:36:09.889Z,1.33
2022-09-05T12:40:58.023Z,1.30
2022-09-05T12:41:33.271Z,1.30
2022-09-05T12:41:41.301Z,1.75
2022-09-05T12:41:42.382Z,1.50
2022-09-05T12:42:09.961Z,1.52
2022-09-05T12:44:28.935Z,1.48
2022-09-05T12:44:51.058Z,1.95
2022-09-05T12:46:00.860Z,1.50
2022-09-05T12:47:16.914Z,1.20
2022-09-05T12:48:39.137Z,1.10
2022-09-05T12:49:51.810Z,1.27
2022-09-05T12:50:59.090Z,1.33
2022-09-05T12:52:05.816Z,1.17
2022-09-05T12:53:10.777Z,1.40
2022-09-05T12:54:33.761Z,1.52
2022-09-05T12:55:41.614Z,1.17
2022-09-05T12:58:45.813Z,1.33
2022-09-05T13:02:59.121Z,1.10
2022-09-05T13:02:59.165Z,1.17
2022-09-05T13:03:05.379Z,1.00
2022-09-05T13:03:07.069Z,1.60
2022-09-05T13:04:27.103Z,1.27
2022-09-05T13:05:51.593Z,1.10
2022-09-05T13:06:59.252Z,1.13
2022-09-05T13:08:02.544Z,1.20
2022-09-05T13:09:10.584Z,1.00
2022-09-05T13:12:32.592Z,1.08
2022-09-05T13:14:49.976Z,1.05
2022-09-05T13:14:56.951Z,0.90
2022-09-05T13:15:14.063Z,1.20
2022-09-05T13:16:26.044Z,1.20
2022-09-05T13:17:38.111Z,1.23
2022-09-05T13:18:48.593Z,1.35
2022-09-05T13:19:53.881Z,1.10
2022-09-05T13:21:06.485Z,1.30
2022-09-05T13:22:11.219Z,1.10
2022-09-05T13:23:19.800Z,1.20
2022-09-05T13:24:27.662Z,1.15
2022-09-05T13:25:30.625Z,1.08
2022-09-05T13:26:39.966Z,1.05
2022-09-05T13:27:56.591Z,1.20
2022-09-05T13:29:10.342Z,1.27
2022-09-05T13:34:12.699Z,1.30
2022-09-05T13:37:59.482Z,1.00
2022-09-05T13:38:01.012Z,1.23
2022-09-05T13:38:03.242Z,1.30
2022-09-05T13:38:08.369Z,1.27
2022-09-05T13:38:47.440Z,1.20
2022-09-05T13:39:49.201Z,1.10
2022-09-05T13:41:00.307Z,1.15
2022-09-05T13:42:03.809Z,1.13
2022-09-05T13:43:10.604Z,1.10
2022-09-05T13:44:27.030Z,1.10
2022-09-05T13:45:33.138Z,1.00
2022-09-05T13:46:43.746Z,1.00
2022-09-05T13:48:15.329Z,1.05
2022-09-05T13:49:25.771Z,1.00
2022-09-05T13:50:34.903Z,1.10
2022-09-05T13:51:38.957Z,1.10
2022-09-05T13:52:45.555Z,1.10
2022-09-05T13:53:59.517Z,1.17
2022-09-05T13:55:13.621Z,1.27
2022-09-05T13:56:22.990Z,1.05
2022-09-05T13:57:34.938Z,1.10
2022-09-05T13:58:42.882Z,1.02
2022-09-05T14:00:28.853Z,1.27
2022-09-05T14:02:24.940Z,1.25
2022-09-05T14:04:00.587Z,1.10
2022-09-05T14:05:21.042Z,1.58
2022-09-05T14:06:48.834Z,1.30
2022-09-05T14:08:33.867Z,1.10
2022-09-05T14:09:55.926Z,1.40
2022-09-05T14:11:22.196Z,1.23
2022-09-05T14:12:37.184Z,1.40
2022-09-05T14:14:11.048Z,1.30
2022-09-05T14:15:37.617Z,1.00
2022-09-05T14:16:53.616Z,1.13
2022-09-05T14:18:05.855Z,1.17
2022-09-05T14:19:43.646Z,1.00
2022-09-05T14:21:10.395Z,0.88
2022-09-05T14:22:31.766Z,1.55
2022-09-05T14:23:44.943Z,1.02
2022-09-05T14:24:58.172Z,1.30
2022-09-05T14:26:05.321Z,0.90
2022-09-05T14:27:15.205Z,0.98
2022-09-05T14:28:25.653Z,0.93
2022-09-05T14:29:38.913Z,1.15
2022-09-05T14:33:45.323Z,1.10
2022-09-05T14:37:37.043Z,1.30
2022-09-05T14:37:42.670Z,1.08
2022-09-05T14:37:46.367Z,1.20
2022-09-05T14:37:53.211Z,1.02
2022-09-05T14:39:14.881Z,0.98
2022-09-05T14:40:44.796Z,1.30
2022-09-05T14:42:28.487Z,1.33
2022-09-05T14:43:59.117Z,1.20
2022-09-05T14:45:37.005Z,1.17
2022-09-05T14:47:02.190Z,1.35
2022-09-05T14:48:40.721Z,1.63
2022-09-05T14:50:04.885Z,1.05
2022-09-05T14:51:26.024Z,1.25
2022-09-05T14:52:32.449Z,1.00
2022-09-05T14:57:35.640Z,1.00
2022-09-05T15:02:42.069Z,1.15
2022-09-05T15:02:42.986Z,1.40
2022-09-05T15:02:45.701Z,1.33
2022-09-05T15:02:55.255Z,1.23
2022-09-05T15:05:22.069Z,1.40
2022-09-05T15:06:32.728Z,1.10
2022-09-05T15:07:38.499Z,0.70
2022-09-05T15:11:24.615Z,1.27
2022-09-05T15:12:18.328Z,0.90
2022-09-05T15:12:23.217Z,1.38
2022-09-05T15:13:16.868Z,0.90
2022-09-05T15:14:24.002Z,1.10
2022-09-05T15:15:30.150Z,0.90
2022-09-05T15:16:36.483Z,1.02
2022-09-05T15:17:40.286Z,1.05
2022-09-05T15:18:46.429Z,1.20
2022-09-05T15:20:06.502Z,1.02
2022-09-05T15:21:33.740Z,1.10
2022-09-05T15:22:41.918Z,1.05
2022-09-05T15:23:57.148Z,0.95
2022-09-05T15:25:16.946Z,1.00
2022-09-05T15:26:25.611Z,0.85
2022-09-05T15:27:29.359Z,1.00
2022-09-05T15:28:35.521Z,1.25
2022-09-05T15:29:37.501Z,1.05
2022-09-05T15:30:40.638Z,1.00
2022-09-05T15:31:42.686Z,1.08
2022-09-05T15:32:50.525Z,0.90
2022-09-05T15:33:55.107Z,1.00
2022-09-05T15:34:59.096Z,1.05
2022-09-05T15:36:03.450Z,1.23
2022-09-05T15:37:22.752Z,0.80
2022-09-05T15:38:48.933Z,1.10
2022-09-05T15:40:07.704Z,1.15
2022-09-05T15:41:27.584Z,0.95
2022-09-05T15:42:32.561Z,0.80
2022-09-05T15:44:09.695Z,0.95
2022-09-05T15:47:10.440Z,1.05
2022-09-05T15:48:18.314Z,0.95
2022-09-05T15:49:31.635Z,1.05
2022-09-05T15:50:41.197Z,0.90
2022-09-05T15:51:49.791Z,1.30
2022-09-05T15:52:55.680Z,1.10
2022-09-05T15:54:01.133Z,1.30
2022-09-05T15:55:11.918Z,0.90
2022-09-05T15:56:18.731Z,1.00
2022-09-05T15:57:26.573Z,1.10
2022-09-05T15:58:52.566Z,0.90
2022-09-05T15:59:57.421Z,0.80
2022-09-05T16:01:15.660Z,1.10
2022-09-05T16:02:36.116Z,0.80
2022-09-05T16:09:42.337Z,0.80
2022-09-05T16:10:26.690Z,1.05
2022-09-05T16:10:38.138Z,1.45
2022-09-05T16:10:38.258Z,1.13
2022-09-05T16:10:42.216Z,0.95
2022-09-05T16:12:00.488Z,0.90
2022-09-05T16:12:51.314Z,0.95
2022-09-05T16:13:56.800Z,1.20
2022-09-05T16:16:14.317Z,1.30
2022-09-05T16:23:12.738Z,0.90
2022-09-05T16:23:18.295Z,1.20
2022-09-05T16:23:33.824Z,1.00
2022-09-05T16:23:34.525Z,1.15
2022-09-05T16:23:38.194Z,1.00
2022-09-05T16:23:47.193Z,1.20
2022-09-05T16:24:59.464Z,0.80
2022-09-05T16:26:08.542Z,1.10
2022-09-05T16:27:18.745Z,1.13
2022-09-05T16:28:25.099Z,0.90
2022-09-05T16:29:30.172Z,1.20
2022-09-05T16:30:35.005Z,1.05
2022-09-05T16:31:43.658Z,0.98
2022-09-05T16:32:51.302Z,1.17
2022-09-05T16:33:53.956Z,1.20
2022-09-05T16:35:01.133Z,0.70
2022-09-05T16:36:07.993Z,1.30
2022-09-05T16:37:14.601Z,0.80
2022-09-05T16:38:46.254Z,1.20
2022-09-05T16:39:50.890Z,1.40
2022-09-05T16:40:58.554Z,0.90
2022-09-05T16:42:04.519Z,1.30
2022-09-05T16:43:13.993Z,1.15
2022-09-05T16:44:28.258Z,1.10
2022-09-05T16:45:35.419Z,1.45
2022-09-05T16:46:42.097Z,0.98
2022-09-05T16:47:51.481Z,0.80
2022-09-05T16:48:59.812Z,0.98
2022-09-05T16:50:07.210Z,1.13
2022-09-05T16:51:34.821Z,1.00
2022-09-05T16:52:59.519Z,1.20
2022-09-05T16:54:10.331Z,1.20
2022-09-05T16:55:21.316Z,1.17
2022-09-05T16:56:37.961Z,1.15
2022-09-05T16:57:59.128Z,1.00
2022-09-05T16:59:07.827Z,1.13
2022-09-05T17:00:10.897Z,1.23
2022-09-05T17:01:32.189Z,1.20
2022-09-05T17:02:42.201Z,1.20
2022-09-05T17:03:54.434Z,1.55
2022-09-05T17:05:11.375Z,1.20
2022-09-05T17:06:25.785Z,1.30
2022-09-05T17:07:33.879Z,1.30
2022-09-05T17:08:36.405Z,1.17
2022-09-05T17:09:42.746Z,1.30
2022-09-05T17:10:52.886Z,1.20
2022-09-05T17:12:10.656Z,1.60
2022-09-05T17:13:19.990Z,1.10
2022-09-05T17:14:24.058Z,1.58
2022-09-05T17:15:31.626Z,1.45
2022-09-05T17:16:37.131Z,1.48
2022-09-05T17:18:21.957Z,1.80
2022-09-05T17:19:24.046Z,1.60
2022-09-05T17:20:30.726Z,1.40
2022-09-05T17:23:23.917Z,1.40
2022-09-05T17:25:45.947Z,1.45
2022-09-05T17:29:23.471Z,1.60
2022-09-05T17:29:26.145Z,2.00
2022-09-05T17:29:43.155Z,1.77
2022-09-05T17:29:44.203Z,1.50
2022-09-05T17:32:40.436Z,1.65
2022-09-05T17:33:45.655Z,1.92
2022-09-05T17:35:17.309Z,2.28
2022-09-05T17:36:40.993Z,1.65
2022-09-05T17:38:11.523Z,2.55
2022-09-05T17:39:44.626Z,1.77
2022-09-05T17:41:30.082Z,1.92
2022-09-05T17:42:46.720Z,1.98
2022-09-05T17:43:57.843Z,2.00
2022-09-05T17:45:10.638Z,1.80
2022-09-05T17:46:20.760Z,2.22
2022-09-05T17:47:35.645Z,1.73
2022-09-05T17:49:19.103Z,1.73
2022-09-05T17:50:49.436Z,2.63
2022-09-05T17:52:22.871Z,2.22
2022-09-05T17:53:31.460Z,4.35
2022-09-05T17:54:34.036Z,2.10
2022-09-05T17:56:14.637Z,2.63
2022-09-05T17:57:35.747Z,2.25
2022-09-05T17:58:49.699Z,2.42
2022-09-05T17:59:52.687Z,2.33
2022-09-05T18:01:18.793Z,2.80
2022-09-05T18:02:32.656Z,2.05
2022-09-05T18:04:18.126Z,2.47
2022-09-05T18:06:03.696Z,2.22
2022-09-05T18:07:47.637Z,2.20
2022-09-05T18:08:52.839Z,2.33
2022-09-05T18:10:12.958Z,2.65
2022-09-05T18:11:44.807Z,2.35